Terminal Aerodrome Forecast
Issued by NWS

Home | Current Version | Previous Version | Text Only | Print | Product List | Glossary On
Versions: 1 2 3 4 5 6 7 8 9 10 11 12 13 14 15 16 17 18 19 20
000
FTUS46 KPDT 281700
TAFPSC
TAF
KPSC 281725Z 2818/2918 34005KT 3SM BR OVC005
     FM282200 33005KT 6SM BR OVC012
     FM290200 30003KT 4SM BR OVC007
     FM291200 34003KT 3SM BR BKN003 OVC006=

USA.gov is the U.S. government's official web portal to all federal, state and local government web resources and services.